Time;durP1;ratioP1;P1;durP2;ratioP2;P2;SDS_P1;SDS_P2;PMS_P1;PMS_P2;Temp;Humidity;BMP_temperature;BMP_pressure;BME280_temperature;BME280_humidity;BME280_pressure;Samples;Min_cycle;Max_cycle;Signal;HPM_P1;HPM_P2
2023/09/26 00:00:08;;;;;;;11.77;5.57;;;;;;;;;;4948154;28;94811;-84
2023/09/26 00:02:35;;;;;;;9.35;4.78;;;;;;;;;;4949079;28;97820;-83
2023/09/26 00:05:08;;;;;;;9.32;5.13;;;;;;;;;;4950432;28;93751;-83
2023/09/26 00:07:36;;;;;;;10.20;5.43;;;;;;;;;;4949670;28;95933;-83
2023/09/26 00:10:04;;;;;;;10.50;5.07;;;;;;;;;;4949679;28;93720;-83
2023/09/26 00:12:30;;;;;;;11.90;5.47;;;;;;;;;;4959762;28;93091;-82
2023/09/26 00:14:57;;;;;;;11.10;5.13;;;;;;;;;;4952159;28;93593;-82
2023/09/26 00:17:23;;;;;;;10.55;4.65;;;;;;;;;;4951684;28;92161;-83
2023/09/26 00:19:50;;;;;;;8.65;4.40;;;;;;;;;;4948948;28;93037;-83
2023/09/26 00:22:17;;;;;;;9.65;4.70;;;;;;;;;;4948905;28;94648;-84
2023/09/26 00:24:44;;;;;;;9.88;5.43;;;;;;;;;;4948177;28;95088;-83
2023/09/26 00:27:11;;;;;;;10.05;4.90;;;;;;;;;;4949481;28;95707;-83
2023/09/26 00:29:38;;;;;;;9.95;4.80;;;;;;;;;;4950582;28;93323;-83
2023/09/26 00:32:04;;;;;;;8.73;4.38;;;;;;;;;;4949122;28;92562;-84
2023/09/26 00:34:31;;;;;;;11.98;4.70;;;;;;;;;;4953243;28;93325;-84
2023/09/26 00:36:57;;;;;;;8.70;4.75;;;;;;;;;;4948054;28;92422;-84
2023/09/26 00:39:27;;;;;;;9.15;4.18;;;;;;;;;;4930649;28;94289;-83
2023/09/26 00:41:54;;;;;;;8.85;4.50;;;;;;;;;;4955005;28;93584;-83
2023/09/26 00:44:20;;;;;;;8.45;4.30;;;;;;;;;;4930440;28;92542;-83
2023/09/26 00:46:47;;;;;;;9.98;4.60;;;;;;;;;;4930334;28;93248;-83
2023/09/26 00:49:14;;;;;;;8.75;4.38;;;;;;;;;;4943240;28;98143;-84
2023/09/26 00:51:41;;;;;;;9.48;3.78;;;;;;;;;;4929724;28;93788;-83
2023/09/26 00:54:09;;;;;;;8.80;4.40;;;;;;;;;;4944839;28;95576;-83
2023/09/26 00:56:38;;;;;;;9.10;4.35;;;;;;;;;;4946312;28;94205;-84
2023/09/26 00:59:05;;;;;;;11.15;4.18;;;;;;;;;;4949304;28;93388;-83
2023/09/26 01:01:32;;;;;;;;;;;;;;;;;;4947787;28;93548;-83
2023/09/26 01:04:00;;;;;;;9.50;4.13;;;;;;;;;;4963998;28;92819;-83
2023/09/26 01:06:27;;;;;;;9.23;3.88;;;;;;;;;;4949909;28;92946;-83
2023/09/26 01:08:55;;;;;;;8.20;3.75;;;;;;;;;;4951861;28;93302;-84
2023/09/26 01:11:21;;;;;;;9.45;3.75;;;;;;;;;;4952643;28;92468;-84
2023/09/26 01:13:48;;;;;;;8.15;3.58;;;;;;;;;;4949548;28;95070;-84
2023/09/26 01:16:16;;;;;;;7.78;4.13;;;;;;;;;;4956742;28;93676;-84
2023/09/26 01:18:43;;;;;;;8.63;3.88;;;;;;;;;;4960402;28;92491;-84
2023/09/26 01:21:10;;;;;;;7.50;3.47;;;;;;;;;;4952576;28;94572;-84
2023/09/26 01:23:39;;;;;;;7.45;3.60;;;;;;;;;;4952525;28;92435;-84
2023/09/26 01:26:05;;;;;;;7.20;3.60;;;;;;;;;;4949541;28;95470;-84
2023/09/26 01:28:38;;;;;;;7.65;3.72;;;;;;;;;;4952678;28;93394;-84
2023/09/26 01:31:05;;;;;;;8.57;3.85;;;;;;;;;;4952581;28;92173;-83
2023/09/26 01:33:32;;;;;;;10.23;3.65;;;;;;;;;;4952578;28;92580;-84
2023/09/26 01:35:58;;;;;;;8.77;3.63;;;;;;;;;;4950724;28;93488;-83
2023/09/26 01:38:25;;;;;;;8.65;3.60;;;;;;;;;;4940549;28;94893;-84
2023/09/26 01:40:52;;;;;;;9.05;3.67;;;;;;;;;;4951755;28;95592;-83
2023/09/26 01:43:18;;;;;;;7.00;3.03;;;;;;;;;;4952084;28;92491;-83
2023/09/26 01:45:46;;;;;;;8.48;3.45;;;;;;;;;;4950787;28;92684;-83
2023/09/26 01:48:13;;;;;;;7.00;3.13;;;;;;;;;;4951666;28;93283;-83
2023/09/26 01:50:41;;;;;;;6.80;3.00;;;;;;;;;;4957035;28;92826;-83
2023/09/26 01:53:10;;;;;;;6.85;3.28;;;;;;;;;;4950194;28;93119;-83
2023/09/26 01:55:38;;;;;;;6.97;3.28;;;;;;;;;;4952876;28;92282;-83
2023/09/26 01:58:05;;;;;;;8.60;3.30;;;;;;;;;;4965205;28;92545;-83
2023/09/26 02:00:32;;;;;;;7.43;3.35;;;;;;;;;;4938484;28;95112;-83
2023/09/26 02:02:58;;;;;;;8.05;3.70;;;;;;;;;;4945072;28;95439;-83
2023/09/26 02:05:26;;;;;;;7.10;3.60;;;;;;;;;;4951486;28;95095;-84
2023/09/26 02:07:53;;;;;;;6.70;3.10;;;;;;;;;;4951380;28;93159;-84
2023/09/26 02:10:22;;;;;;;8.05;3.70;;;;;;;;;;4951976;28;92538;-84
2023/09/26 02:12:49;;;;;;;7.50;3.42;;;;;;;;;;4949172;28;92523;-84
2023/09/26 02:15:16;;;;;;;7.78;3.63;;;;;;;;;;4944223;28;96337;-84
2023/09/26 02:17:43;;;;;;;6.18;3.00;;;;;;;;;;4931659;28;92873;-84
2023/09/26 02:20:14;;;;;;;7.65;3.50;;;;;;;;;;4930784;28;95587;-84
2023/09/26 02:22:43;;;;;;;8.07;3.70;;;;;;;;;;4944689;28;93214;-84
2023/09/26 02:25:13;;;;;;;7.13;3.40;;;;;;;;;;4930821;28;95930;-84
2023/09/26 02:27:41;;;;;;;6.78;3.30;;;;;;;;;;4930143;28;96864;-84
2023/09/26 02:30:09;;;;;;;8.05;3.60;;;;;;;;;;4930322;28;92492;-84
2023/09/26 02:32:36;;;;;;;7.15;3.47;;;;;;;;;;4927496;28;93557;-84
2023/09/26 02:35:03;;;;;;;12.10;3.50;;;;;;;;;;4924692;28;93206;-84
2023/09/26 02:37:34;;;;;;;9.18;3.40;;;;;;;;;;4945597;28;92558;-84
2023/09/26 02:40:04;;;;;;;9.85;3.63;;;;;;;;;;4930424;28;92895;-84
2023/09/26 02:42:32;;;;;;;7.15;3.40;;;;;;;;;;4931088;28;93206;-84
2023/09/26 02:44:59;;;;;;;6.63;3.10;;;;;;;;;;4932432;28;92005;-84
2023/09/26 02:47:26;;;;;;;9.48;3.70;;;;;;;;;;4931428;28;93999;-84
2023/09/26 02:49:53;;;;;;;8.27;3.33;;;;;;;;;;4929718;28;93007;-84
2023/09/26 02:52:22;;;;;;;8.75;3.70;;;;;;;;;;4930244;28;94844;-84
2023/09/26 02:54:48;;;;;;;7.97;3.72;;;;;;;;;;4938995;28;96163;-84
2023/09/26 02:57:15;;;;;;;6.60;3.17;;;;;;;;;;4931110;28;92470;-84
2023/09/26 02:59:42;;;;;;;7.07;3.33;;;;;;;;;;4931081;28;92809;-83
2023/09/26 03:02:08;;;;;;;7.80;3.22;;;;;;;;;;4945668;28;96016;-84
2023/09/26 03:04:35;;;;;;;7.57;3.50;;;;;;;;;;4926211;28;92865;-84
2023/09/26 03:07:02;;;;;;;7.10;3.40;;;;;;;;;;4926901;28;92691;-84
2023/09/26 03:09:30;;;;;;;8.20;3.33;;;;;;;;;;4936256;28;91703;-84
2023/09/26 03:11:57;;;;;;;6.50;3.30;;;;;;;;;;4941077;28;92591;-83
2023/09/26 03:14:24;;;;;;;6.93;3.47;;;;;;;;;;4960567;28;92100;-82
2023/09/26 03:16:50;;;;;;;8.82;3.45;;;;;;;;;;4966699;28;94829;-83
2023/09/26 03:19:22;;;;;;;6.70;3.22;;;;;;;;;;4967843;28;95450;-84
2023/09/26 03:21:50;;;;;;;8.07;3.22;;;;;;;;;;4964975;28;94676;-82
2023/09/26 03:24:17;;;;;;;7.85;3.13;;;;;;;;;;4948558;28;92446;-84
2023/09/26 03:26:45;;;;;;;6.72;3.20;;;;;;;;;;4950813;28;93416;-83
2023/09/26 03:29:14;;;;;;;6.68;3.15;;;;;;;;;;4936248;28;94150;-83
2023/09/26 03:31:41;;;;;;;6.65;3.15;;;;;;;;;;4947364;28;98578;-83
2023/09/26 03:34:09;;;;;;;6.07;3.40;;;;;;;;;;4949771;28;98050;-83
2023/09/26 03:36:38;;;;;;;6.88;3.33;;;;;;;;;;4950475;28;92478;-82
2023/09/26 03:39:05;;;;;;;8.00;3.58;;;;;;;;;;4948098;28;95834;-82
2023/09/26 03:41:34;;;;;;;10.35;3.30;;;;;;;;;;4959246;28;95582;-82
2023/09/26 03:44:00;;;;;;;6.95;3.28;;;;;;;;;;4946263;28;92430;-82
2023/09/26 03:46:27;;;;;;;6.65;3.40;;;;;;;;;;4952811;28;92974;-82
2023/09/26 03:48:54;;;;;;;7.13;3.42;;;;;;;;;;4949457;28;93785;-82
2023/09/26 03:51:20;;;;;;;6.95;3.50;;;;;;;;;;4950711;28;92748;-82
2023/09/26 03:53:47;;;;;;;7.72;3.60;;;;;;;;;;4949618;28;93659;-82
2023/09/26 03:56:14;;;;;;;7.18;3.05;;;;;;;;;;4964349;28;92830;-82
2023/09/26 03:58:40;;;;;;;6.45;2.90;;;;;;;;;;4950482;28;92283;-84
2023/09/26 04:01:16;;;;;;;6.65;3.20;;;;;;;;;;4949692;28;94312;-84
2023/09/26 04:03:46;;;;;;;6.25;3.10;;;;;;;;;;4949722;28;92403;-83
2023/09/26 04:06:13;;;;;;;6.72;3.10;;;;;;;;;;4948312;28;96035;-83
2023/09/26 04:08:39;;;;;;;8.43;3.20;;;;;;;;;;4949516;28;93124;-83
2023/09/26 04:11:12;;;;;;;8.98;3.75;;;;;;;;;;4953539;28;92937;-83
2023/09/26 04:13:41;;;;;;;8.57;3.10;;;;;;;;;;4951834;28;93192;-83
2023/09/26 04:16:08;;;;;;;6.40;3.03;;;;;;;;;;4959605;28;92783;-83
2023/09/26 04:18:34;;;;;;;7.68;3.88;;;;;;;;;;4951810;28;92758;-83
2023/09/26 04:21:05;;;;;;;7.43;3.50;;;;;;;;;;4950868;28;93695;-83
2023/09/26 04:23:35;;;;;;;7.15;2.88;;;;;;;;;;4950890;28;91759;-84
2023/09/26 04:26:15;;;;;;;7.97;3.15;;;;;;;;;;4948691;28;94727;-82
2023/09/26 04:28:42;;;;;;;8.35;3.63;;;;;;;;;;4949813;28;92982;-83
2023/09/26 04:31:19;;;;;;;14.70;3.80;;;;;;;;;;4950063;28;95302;-83
2023/09/26 04:33:47;;;;;;;11.15;3.60;;;;;;;;;;4952224;28;95142;-84
2023/09/26 04:36:14;;;;;;;7.53;3.40;;;;;;;;;;4950888;28;92531;-84
2023/09/26 04:38:40;;;;;;;9.15;3.30;;;;;;;;;;4949943;28;92804;-84
2023/09/26 04:41:07;;;;;;;9.18;3.60;;;;;;;;;;4950611;28;93447;-84
2023/09/26 04:43:34;;;;;;;8.02;3.42;;;;;;;;;;4953415;28;92555;-84
2023/09/26 04:46:01;;;;;;;8.05;3.42;;;;;;;;;;4967796;28;95402;-83
2023/09/26 04:48:27;;;;;;;9.45;3.65;;;;;;;;;;4950145;28;92721;-83
2023/09/26 04:50:54;;;;;;;8.23;3.58;;;;;;;;;;4953187;28;92450;-83
2023/09/26 04:53:22;;;;;;;9.70;3.40;;;;;;;;;;4949106;28;93225;-83
2023/09/26 04:55:49;;;;;;;7.60;3.03;;;;;;;;;;4946195;28;94981;-83
2023/09/26 04:58:15;;;;;;;9.23;3.65;;;;;;;;;;4955168;28;95135;-83
2023/09/26 05:00:42;;;;;;;7.18;3.10;;;;;;;;;;4952259;28;94309;-83
2023/09/26 05:03:09;;;;;;;7.07;3.53;;;;;;;;;;4955712;28;92683;-83
2023/09/26 05:05:36;;;;;;;7.28;3.30;;;;;;;;;;4951745;28;95304;-83
2023/09/26 05:08:04;;;;;;;6.95;3.30;;;;;;;;;;4960039;28;94177;-83
2023/09/26 05:10:31;;;;;;;7.78;3.38;;;;;;;;;;4965327;28;92984;-83
2023/09/26 05:12:58;;;;;;;7.28;3.17;;;;;;;;;;4981072;28;94000;-84
2023/09/26 05:15:27;;;;;;;8.98;3.50;;;;;;;;;;4958610;28;93054;-84
2023/09/26 05:17:54;;;;;;;7.20;3.65;;;;;;;;;;4961003;28;93093;-82
2023/09/26 05:20:20;;;;;;;7.88;3.70;;;;;;;;;;4958684;28;97821;-83
2023/09/26 05:22:48;;;;;;;8.30;3.45;;;;;;;;;;4959864;28;93035;-84
2023/09/26 05:25:14;;;;;;;;;;;;;;;;;;4960030;28;93513;-83
2023/09/26 05:27:41;;;;;;;8.13;3.80;;;;;;;;;;4962444;28;94594;-83
2023/09/26 05:30:11;;;;;;;7.20;3.67;;;;;;;;;;4965766;28;92417;-84
2023/09/26 05:32:39;;;;;;;8.02;3.45;;;;;;;;;;4964639;28;93131;-84
2023/09/26 05:35:07;;;;;;;8.35;3.70;;;;;;;;;;4958765;28;96252;-84
2023/09/26 05:37:34;;;;;;;7.20;3.38;;;;;;;;;;4956846;28;92501;-83
2023/09/26 05:40:01;;;;;;;7.70;3.78;;;;;;;;;;4954194;28;92631;-84
2023/09/26 05:42:29;;;;;;;7.50;3.70;;;;;;;;;;4943497;28;92842;-83
2023/09/26 05:44:56;;;;;;;8.48;3.70;;;;;;;;;;4966847;28;95186;-84
2023/09/26 05:47:22;;;;;;;8.15;3.88;;;;;;;;;;4941067;28;93507;-83
2023/09/26 05:49:51;;;;;;;9.77;3.90;;;;;;;;;;4954219;28;92603;-84
2023/09/26 05:52:19;;;;;;;10.45;3.90;;;;;;;;;;4954520;28;92523;-83
2023/09/26 05:54:47;;;;;;;7.95;3.80;;;;;;;;;;4952714;28;93159;-83
2023/09/26 05:57:13;;;;;;;;;;;;;;;;;;4953102;28;92842;-84
2023/09/26 05:59:40;;;;;;;8.48;3.78;;;;;;;;;;4957064;28;97096;-83
2023/09/26 06:02:07;;;;;;;7.45;3.55;;;;;;;;;;4936752;28;92684;-84
2023/09/26 06:04:34;;;;;;;7.78;3.45;;;;;;;;;;4957465;28;92968;-83
2023/09/26 06:07:01;;;;;;;9.23;3.67;;;;;;;;;;4944179;28;93303;-83
2023/09/26 06:09:28;;;;;;;9.70;3.20;;;;;;;;;;4953376;28;94888;-84
2023/09/26 06:11:55;;;;;;;10.20;3.83;;;;;;;;;;4951255;28;95371;-84
2023/09/26 06:14:21;;;;;;;10.23;3.40;;;;;;;;;;4951272;28;93418;-84
2023/09/26 06:16:48;;;;;;;9.95;3.47;;;;;;;;;;4954444;28;92749;-84
2023/09/26 06:19:15;;;;;;;8.75;3.47;;;;;;;;;;4951439;28;93304;-84
2023/09/26 06:21:42;;;;;;;7.90;3.58;;;;;;;;;;4940331;28;93608;-84
2023/09/26 06:24:09;;;;;;;6.43;3.22;;;;;;;;;;4953185;28;92704;-84
2023/09/26 06:26:35;;;;;;;7.70;4.18;;;;;;;;;;4964475;28;92673;-85
2023/09/26 06:29:02;;;;;;;8.88;3.75;;;;;;;;;;4969930;28;92372;-86
2023/09/26 06:31:29;;;;;;;9.93;3.58;;;;;;;;;;4974403;28;91753;-86
2023/09/26 06:33:59;;;;;;;10.43;3.75;;;;;;;;;;4951280;28;95744;-84
2023/09/26 06:36:30;;;;;;;8.27;3.60;;;;;;;;;;4955914;28;92585;-85
2023/09/26 06:38:57;;;;;;;9.68;4.20;;;;;;;;;;4954426;28;92802;-85
2023/09/26 06:41:24;;;;;;;9.30;4.20;;;;;;;;;;4953482;28;93840;-85
2023/09/26 06:43:51;;;;;;;8.93;4.18;;;;;;;;;;4951377;28;92421;-85
2023/09/26 06:46:18;;;;;;;9.00;3.83;;;;;;;;;;4952683;28;93823;-90
2023/09/26 06:48:45;;;;;;;10.43;3.85;;;;;;;;;;4964476;28;92481;-89
2023/09/26 06:51:12;;;;;;;8.63;3.50;;;;;;;;;;4944356;28;95747;-89
2023/09/26 06:53:39;;;;;;;9.63;3.55;;;;;;;;;;4939563;28;92932;-89
2023/09/26 06:56:06;;;;;;;6.93;3.30;;;;;;;;;;4961013;28;92679;-90
2023/09/26 06:58:37;;;;;;;7.18;2.90;;;;;;;;;;4955766;28;94873;-90
2023/09/26 07:01:10;;;;;;;7.03;2.75;;;;;;;;;;4961430;28;92325;-89
2023/09/26 07:03:37;;;;;;;6.30;2.63;;;;;;;;;;4950737;28;92510;-90
2023/09/26 07:06:07;;;;;;;6.68;2.80;;;;;;;;;;4956546;28;92947;-89
2023/09/26 07:08:34;;;;;;;4.72;2.47;;;;;;;;;;4948787;28;92555;-89
2023/09/26 07:11:03;;;;;;;7.13;2.80;;;;;;;;;;4952597;28;92512;-90
2023/09/26 07:13:30;;;;;;;7.00;2.80;;;;;;;;;;4947503;28;94744;-90
2023/09/26 07:16:15;;;;;;;6.38;2.67;;;;;;;;;;4936705;28;91921;-90
2023/09/26 07:18:42;;;;;;;5.53;2.60;;;;;;;;;;4944561;28;92907;-89
2023/09/26 07:21:09;;;;;;;7.93;3.00;;;;;;;;;;4956719;28;95998;-90
2023/09/26 07:23:36;;;;;;;7.28;2.70;;;;;;;;;;4948729;28;95399;-88
2023/09/26 07:26:06;;;;;;;6.03;2.80;;;;;;;;;;4949013;28;95213;-89
2023/09/26 07:28:32;;;;;;;4.93;2.45;;;;;;;;;;4947148;28;93024;-89
2023/09/26 07:30:59;;;;;;;6.03;2.50;;;;;;;;;;4948215;28;92542;-88
2023/09/26 07:33:28;;;;;;;6.65;2.75;;;;;;;;;;4949574;28;93194;-87
2023/09/26 07:35:55;;;;;;;5.47;2.42;;;;;;;;;;4962978;28;92504;-88
2023/09/26 07:38:21;;;;;;;8.93;2.70;;;;;;;;;;4949691;28;92465;-88
2023/09/26 07:40:48;;;;;;;5.55;2.40;;;;;;;;;;4946162;28;93362;-87
2023/09/26 07:43:15;;;;;;;6.75;2.60;;;;;;;;;;4958319;28;92545;-88
2023/09/26 07:45:41;;;;;;;6.15;2.83;;;;;;;;;;4950492;28;93091;-87
2023/09/26 07:48:08;;;;;;;8.07;2.67;;;;;;;;;;4949402;28;94942;-87
2023/09/26 07:50:35;;;;;;;;;;;;;;;;;;4953454;28;92486;-88
2023/09/26 07:53:02;;;;;;;6.55;2.42;;;;;;;;;;4950644;28;117386;-88
2023/09/26 07:55:28;;;;;;;6.15;2.60;;;;;;;;;;4957485;28;92456;-87
2023/09/26 07:57:55;;;;;;;7.07;2.60;;;;;;;;;;4963123;28;95749;-87
2023/09/26 08:00:22;;;;;;;6.40;2.60;;;;;;;;;;4944650;28;92567;-87
2023/09/26 08:02:48;;;;;;;5.70;2.45;;;;;;;;;;4930781;28;92693;-88
2023/09/26 08:05:15;;;;;;;5.47;2.58;;;;;;;;;;4949358;28;92670;-87
2023/09/26 08:07:43;;;;;;;7.05;3.05;;;;;;;;;;4959948;28;92904;-88
2023/09/26 08:10:10;;;;;;;6.30;2.95;;;;;;;;;;4946287;28;92899;-92
2023/09/26 08:12:36;;;;;;;6.05;2.72;;;;;;;;;;4947545;28;97905;-86
2023/09/26 08:15:03;;;;;;;6.07;2.90;;;;;;;;;;4957276;28;93159;-87
2023/09/26 08:17:30;;;;;;;6.28;2.63;;;;;;;;;;4951006;28;92899;-87
2023/09/26 08:19:56;;;;;;;7.03;2.70;;;;;;;;;;4949479;28;93528;-87
2023/09/26 08:22:23;;;;;;;5.60;2.38;;;;;;;;;;4949360;28;92509;-84
2023/09/26 08:24:50;;;;;;;6.03;2.38;;;;;;;;;;4948559;28;92729;-85
2023/09/26 08:27:17;;;;;;;7.03;2.33;;;;;;;;;;4948667;28;93524;-85
2023/09/26 08:29:44;;;;;;;7.53;2.78;;;;;;;;;;4959585;28;91786;-84
2023/09/26 08:32:10;;;;;;;6.78;2.63;;;;;;;;;;4957033;28;92907;-84
2023/09/26 08:34:37;;;;;;;7.35;2.53;;;;;;;;;;4948808;28;92544;-84
2023/09/26 08:37:04;;;;;;;6.63;2.50;;;;;;;;;;4948465;28;95682;-86
2023/09/26 08:39:30;;;;;;;5.85;2.63;;;;;;;;;;4948617;28;93717;-85
2023/09/26 08:41:58;;;;;;;6.80;2.30;;;;;;;;;;4948754;28;92999;-85
2023/09/26 08:44:25;;;;;;;5.32;2.40;;;;;;;;;;4949846;28;92873;-85
2023/09/26 08:46:52;;;;;;;7.28;2.33;;;;;;;;;;4963868;28;94838;-84
2023/09/26 08:49:19;;;;;;;5.25;2.47;;;;;;;;;;4948229;28;92969;-84
2023/09/26 08:51:46;;;;;;;6.72;2.75;;;;;;;;;;4957055;28;95889;-86
2023/09/26 08:54:12;;;;;;;8.27;2.95;;;;;;;;;;4947830;28;94964;-85
2023/09/26 08:56:39;;;;;;;7.18;2.75;;;;;;;;;;4950401;28;92648;-85
2023/09/26 08:59:09;;;;;;;6.82;2.72;;;;;;;;;;4962241;28;93576;-86
2023/09/26 09:01:36;;;;;;;5.90;2.45;;;;;;;;;;4963718;28;94941;-86
2023/09/26 09:04:03;;;;;;;6.32;2.53;;;;;;;;;;4948002;28;98602;-86
2023/09/26 09:06:29;;;;;;;8.65;2.65;;;;;;;;;;4947991;28;93087;-86
2023/09/26 09:09:05;;;;;;;5.03;2.38;;;;;;;;;;4949901;28;92884;-86
2023/09/26 09:11:33;;;;;;;6.18;2.30;;;;;;;;;;4956042;28;92415;-85
2023/09/26 09:13:59;;;;;;;6.15;2.35;;;;;;;;;;4946420;28;93601;-85
2023/09/26 09:16:26;;;;;;;6.88;2.60;;;;;;;;;;4951356;28;92774;-85
2023/09/26 09:18:58;;;;;;;6.38;2.60;;;;;;;;;;4963472;28;92923;-86
2023/09/26 09:21:33;;;;;;;5.82;2.40;;;;;;;;;;4949060;28;93785;-86
2023/09/26 09:24:01;;;;;;;6.22;2.60;;;;;;;;;;4938590;28;92709;-86
2023/09/26 09:26:32;;;;;;;5.80;2.80;;;;;;;;;;4944963;28;98172;-86
2023/09/26 09:29:14;;;;;;;6.35;2.80;;;;;;;;;;4941225;28;92729;-85
2023/09/26 09:31:41;;;;;;;6.93;2.75;;;;;;;;;;4935384;28;94043;-84
2023/09/26 09:34:08;;;;;;;6.88;2.80;;;;;;;;;;4951827;28;93633;-83
2023/09/26 09:36:37;;;;;;;7.53;2.80;;;;;;;;;;4948290;28;92477;-87
2023/09/26 09:39:04;;;;;;;7.43;2.45;;;;;;;;;;4970025;28;95932;-85
2023/09/26 09:41:31;;;;;;;5.85;2.58;;;;;;;;;;4950287;28;93960;-86
2023/09/26 09:43:58;;;;;;;6.47;2.40;;;;;;;;;;4936513;28;92999;-86
2023/09/26 09:46:25;;;;;;;5.65;2.50;;;;;;;;;;4949039;28;93858;-86
2023/09/26 09:48:56;;;;;;;5.20;2.30;;;;;;;;;;4950593;28;92461;-88
2023/09/26 09:51:23;;;;;;;11.15;5.95;;;;;;;;;;4952008;28;95651;-85
2023/09/26 09:53:53;;;;;;;11.63;6.55;;;;;;;;;;4963291;28;95766;-84
2023/09/26 09:56:21;;;;;;;11.85;5.80;;;;;;;;;;4948294;28;92489;-83
2023/09/26 09:58:59;;;;;;;14.02;6.50;;;;;;;;;;4965046;28;92954;-84
2023/09/26 10:01:26;;;;;;;10.43;5.60;;;;;;;;;;4953355;28;93064;-84
2023/09/26 10:03:53;;;;;;;9.27;5.35;;;;;;;;;;4945669;28;92970;-84
2023/09/26 10:06:20;;;;;;;11.13;5.35;;;;;;;;;;4950013;28;93621;-85
2023/09/26 10:08:48;;;;;;;9.00;4.40;;;;;;;;;;4949819;28;92379;-84
2023/09/26 10:11:16;;;;;;;9.20;4.40;;;;;;;;;;4950260;28;92487;-84
2023/09/26 10:13:43;;;;;;;9.73;5.20;;;;;;;;;;4949968;28;93212;-84
2023/09/26 10:16:17;;;;;;;11.05;4.80;;;;;;;;;;4955556;28;94875;-86
2023/09/26 10:18:45;;;;;;;10.13;4.50;;;;;;;;;;4958794;28;94276;-86
2023/09/26 10:21:29;;;;;;;9.55;4.13;;;;;;;;;;4955668;28;92360;-86
2023/09/26 10:24:08;;;;;;;9.50;5.55;;;;;;;;;;4967243;28;95209;-87
2023/09/26 10:26:48;;;;;;;10.43;4.78;;;;;;;;;;4951303;28;93441;-88
2023/09/26 10:29:14;;;;;;;9.75;5.38;;;;;;;;;;4969158;28;92860;-87
2023/09/26 10:31:46;;;;;;;10.80;5.53;;;;;;;;;;4938239;28;92890;-87
2023/09/26 10:34:14;;;;;;;9.95;4.43;;;;;;;;;;4952745;28;97188;-86
2023/09/26 10:36:42;;;;;;;12.95;5.80;;;;;;;;;;4952721;28;92677;-87
2023/09/26 10:39:09;;;;;;;9.95;5.68;;;;;;;;;;4931923;28;95862;-87
2023/09/26 10:41:37;;;;;;;10.82;4.75;;;;;;;;;;4948568;28;95895;-88
2023/09/26 10:44:23;;;;;;;9.63;5.65;;;;;;;;;;4934298;28;92877;-88
2023/09/26 10:46:50;;;;;;;11.50;6.00;;;;;;;;;;4932107;28;93604;-87
2023/09/26 10:49:16;;;;;;;10.82;6.03;;;;;;;;;;4935143;28;92488;-88
2023/09/26 10:51:43;;;;;;;11.13;5.60;;;;;;;;;;4936224;28;92724;-85
2023/09/26 10:54:10;;;;;;;13.60;6.28;;;;;;;;;;4933335;28;93062;-85
2023/09/26 10:56:38;;;;;;;10.10;5.45;;;;;;;;;;4929047;28;92799;-86
2023/09/26 10:59:05;;;;;;;14.00;6.72;;;;;;;;;;4942806;28;93085;-84
2023/09/26 11:01:37;;;;;;;11.70;6.47;;;;;;;;;;4938479;28;92487;-84
2023/09/26 11:04:05;;;;;;;12.02;6.00;;;;;;;;;;4915758;28;92607;-83
2023/09/26 11:06:33;;;;;;;10.52;5.50;;;;;;;;;;4934263;28;94890;-84
2023/09/26 11:09:02;;;;;;;11.40;6.25;;;;;;;;;;4933036;28;92895;-84
2023/09/26 11:11:32;;;;;;;11.00;5.68;;;;;;;;;;4952163;28;94786;-86
2023/09/26 11:13:58;;;;;;;8.95;4.68;;;;;;;;;;4969616;28;93389;-86
2023/09/26 11:16:25;;;;;;;10.65;5.90;;;;;;;;;;4951107;28;92810;-88
2023/09/26 11:18:54;;;;;;;11.98;5.80;;;;;;;;;;4929900;28;93064;-88
2023/09/26 11:21:21;;;;;;;12.57;6.82;;;;;;;;;;4945423;28;96796;-87
2023/09/26 11:23:56;;;;;;;10.30;6.00;;;;;;;;;;4933854;28;92025;-87
2023/09/26 11:26:23;;;;;;;;;;;;;;;;;;4931534;28;92432;-85
2023/09/26 11:28:50;;;;;;;11.48;6.07;;;;;;;;;;4932200;28;100735;-85
2023/09/26 11:31:17;;;;;;;12.65;6.53;;;;;;;;;;4929058;28;94800;-85
2023/09/26 11:33:43;;;;;;;10.43;6.47;;;;;;;;;;4929343;28;92540;-84
2023/09/26 11:36:10;;;;;;;9.55;4.35;;;;;;;;;;4929519;28;92666;-84
2023/09/26 11:38:49;;;;;;;12.68;7.30;;;;;;;;;;4924134;28;94528;-83
2023/09/26 11:41:16;;;;;;;11.13;5.93;;;;;;;;;;4919444;28;96229;-83
2023/09/26 11:43:46;;;;;;;10.50;6.03;;;;;;;;;;4943020;28;92804;-83
2023/09/26 11:46:14;;;;;;;12.48;6.85;;;;;;;;;;4930100;28;93370;-84
2023/09/26 11:48:42;;;;;;;12.75;6.63;;;;;;;;;;4927618;28;95242;-83
2023/09/26 11:51:09;;;;;;;12.50;6.93;;;;;;;;;;4928871;28;92518;-81
2023/09/26 11:53:37;;;;;;;13.18;6.70;;;;;;;;;;4938887;28;92993;-85
2023/09/26 11:56:07;;;;;;;12.55;7.40;;;;;;;;;;4927675;28;95297;-82
2023/09/26 11:58:35;;;;;;;12.65;7.68;;;;;;;;;;4929042;28;95204;-81
2023/09/26 12:01:02;;;;;;;12.55;7.90;;;;;;;;;;4924180;28;93314;-81
2023/09/26 12:03:28;;;;;;;14.60;8.25;;;;;;;;;;4939847;28;92654;-81
2023/09/26 12:05:55;;;;;;;13.50;8.48;;;;;;;;;;4938112;28;94005;-81
2023/09/26 12:08:22;;;;;;;12.73;6.95;;;;;;;;;;4922677;28;93275;-81
2023/09/26 12:10:49;;;;;;;11.93;6.82;;;;;;;;;;4928567;28;93144;-81
2023/09/26 12:13:15;;;;;;;10.60;6.07;;;;;;;;;;4929340;28;94450;-81
2023/09/26 12:15:42;;;;;;;12.80;5.82;;;;;;;;;;4927627;28;93279;-81
2023/09/26 12:18:10;;;;;;;11.10;7.13;;;;;;;;;;4927763;28;92855;-81
2023/09/26 12:20:37;;;;;;;10.40;6.13;;;;;;;;;;4927467;28;95514;-81
2023/09/26 12:23:04;;;;;;;10.75;6.72;;;;;;;;;;4930097;28;92781;-81
2023/09/26 12:25:32;;;;;;;10.27;6.28;;;;;;;;;;4917888;28;92810;-82
2023/09/26 12:27:58;;;;;;;10.00;6.28;;;;;;;;;;4919935;28;93947;-82
2023/09/26 12:30:25;;;;;;;9.10;4.50;;;;;;;;;;4931208;28;92617;-82
2023/09/26 12:32:51;;;;;;;12.95;6.43;;;;;;;;;;4925988;28;92936;-82
2023/09/26 12:35:18;;;;;;;11.43;6.43;;;;;;;;;;4922112;28;93579;-81
2023/09/26 12:37:45;;;;;;;10.27;5.13;;;;;;;;;;4927821;28;93929;-82
2023/09/26 12:40:13;;;;;;;11.50;5.43;;;;;;;;;;4927584;28;93890;-81
2023/09/26 12:42:40;;;;;;;11.75;5.50;;;;;;;;;;4930925;28;92516;-81
2023/09/26 12:45:07;;;;;;;10.32;5.95;;;;;;;;;;4926141;28;95193;-81
2023/09/26 12:47:34;;;;;;;10.05;5.97;;;;;;;;;;4927366;28;93565;-81
2023/09/26 12:50:05;;;;;;;9.55;5.05;;;;;;;;;;4925605;28;92888;-81
2023/09/26 12:52:32;;;;;;;10.73;4.90;;;;;;;;;;4928720;28;93120;-82
2023/09/26 12:54:59;;;;;;;9.93;5.88;;;;;;;;;;4921584;28;93022;-81
2023/09/26 12:57:26;;;;;;;7.68;3.33;;;;;;;;;;4925000;28;95296;-83
2023/09/26 12:59:53;;;;;;;10.15;5.15;;;;;;;;;;4935279;28;93299;-81
2023/09/26 13:02:22;;;;;;;9.05;4.95;;;;;;;;;;4920028;28;91849;-80
2023/09/26 13:04:50;;;;;;;9.82;5.35;;;;;;;;;;4931377;28;94797;-78
2023/09/26 13:07:16;;;;;;;;;;;;;;;;;;4940639;28;93225;-79
2023/09/26 13:09:43;;;;;;;11.68;5.80;;;;;;;;;;4939526;28;101166;-79
2023/09/26 13:12:10;;;;;;;10.95;5.80;;;;;;;;;;4939339;28;94501;-79
2023/09/26 13:14:37;;;;;;;11.63;5.85;;;;;;;;;;4939326;28;93046;-79
2023/09/26 13:17:05;;;;;;;9.50;5.35;;;;;;;;;;4944078;28;92628;-80
2023/09/26 13:19:32;;;;;;;10.80;5.70;;;;;;;;;;4942247;28;93520;-80
2023/09/26 13:21:59;;;;;;;9.60;5.28;;;;;;;;;;4933256;28;92751;-82
2023/09/26 13:24:26;;;;;;;8.68;4.28;;;;;;;;;;4943097;28;94203;-79
2023/09/26 13:26:52;;;;;;;8.82;4.18;;;;;;;;;;4942174;28;94635;-79
2023/09/26 13:29:19;;;;;;;9.82;4.00;;;;;;;;;;4941931;28;92821;-79
2023/09/26 13:31:46;;;;;;;9.40;4.10;;;;;;;;;;4928633;28;92543;-79
2023/09/26 13:34:13;;;;;;;7.70;2.70;;;;;;;;;;4923436;28;95564;-84
2023/09/26 13:36:39;;;;;;;7.10;2.50;;;;;;;;;;4943499;28;92739;-87
2023/09/26 13:39:06;;;;;;;6.95;2.70;;;;;;;;;;4943857;28;92446;-87
2023/09/26 13:41:32;;;;;;;4.78;2.17;;;;;;;;;;4947228;28;92292;-87
2023/09/26 13:43:59;;;;;;;6.22;2.38;;;;;;;;;;4948878;28;92475;-87
2023/09/26 13:46:26;;;;;;;5.57;2.20;;;;;;;;;;4955821;28;92242;-87
2023/09/26 13:48:52;;;;;;;5.18;2.30;;;;;;;;;;4945082;28;92897;-87
2023/09/26 13:51:19;;;;;;;5.18;2.38;;;;;;;;;;4933148;28;91867;-87
2023/09/26 13:53:45;;;;;;;5.88;2.40;;;;;;;;;;4944392;28;96366;-87
2023/09/26 13:56:12;;;;;;;6.43;2.40;;;;;;;;;;4932063;28;92754;-86
2023/09/26 13:58:38;;;;;;;10.70;2.35;;;;;;;;;;4930566;28;95004;-87
2023/09/26 14:01:05;;;;;;;5.05;2.20;;;;;;;;;;4934582;28;92558;-87
2023/09/26 14:03:32;;;;;;;4.55;1.90;;;;;;;;;;4932885;28;92469;-87
2023/09/26 14:05:58;;;;;;;5.32;2.20;;;;;;;;;;4930615;28;93109;-87
2023/09/26 14:08:25;;;;;;;5.53;2.20;;;;;;;;;;4932250;28;92480;-88
2023/09/26 14:10:52;;;;;;;6.03;2.47;;;;;;;;;;4932632;28;94037;-87
2023/09/26 14:13:23;;;;;;;5.50;2.30;;;;;;;;;;4933289;28;93194;-87
2023/09/26 14:15:51;;;;;;;5.05;2.10;;;;;;;;;;4930846;28;91796;-87
2023/09/26 14:18:17;;;;;;;4.88;2.17;;;;;;;;;;4933468;28;92940;-87
2023/09/26 14:20:49;;;;;;;4.38;2.00;;;;;;;;;;4932045;28;93250;-87
2023/09/26 14:23:22;;;;;;;5.75;2.30;;;;;;;;;;4933564;28;95090;-87
2023/09/26 14:25:51;;;;;;;5.70;1.95;;;;;;;;;;4926670;28;94009;-86
2023/09/26 14:28:19;;;;;;;4.93;2.05;;;;;;;;;;4936390;28;93094;-87
2023/09/26 14:30:46;;;;;;;4.55;2.00;;;;;;;;;;4941473;28;92550;-87
2023/09/26 14:33:13;;;;;;;5.55;2.17;;;;;;;;;;4947192;28;95491;-87
2023/09/26 14:35:42;;;;;;;4.25;1.92;;;;;;;;;;4934941;28;92792;-87
2023/09/26 14:38:09;;;;;;;4.93;2.22;;;;;;;;;;4963668;28;96093;-87
2023/09/26 14:40:35;;;;;;;4.80;2.20;;;;;;;;;;4931335;28;92259;-87
2023/09/26 14:43:02;;;;;;;4.60;2.22;;;;;;;;;;4936103;28;93089;-87